createdAt,value
2018-10-12T00:01:22.708Z,5.00
2018-10-12T00:03:53.147Z,5.40
2018-10-12T00:06:22.524Z,5.20
2018-10-12T00:08:56.100Z,5.73
2018-10-12T00:11:25.117Z,4.33
2018-10-12T00:13:54.552Z,5.50
2018-10-12T00:16:26.684Z,4.50
2018-10-12T00:18:56.136Z,5.40
2018-10-12T00:21:25.699Z,4.70
2018-10-12T00:23:55.188Z,5.20
2018-10-12T00:26:24.174Z,5.20
2018-10-12T00:28:54.072Z,4.90
2018-10-12T00:31:23.288Z,5.43
2018-10-12T00:33:52.454Z,5.03
2018-10-12T00:36:24.536Z,4.70
2018-10-12T00:38:52.980Z,4.90
2018-10-12T00:41:23.408Z,4.97
2018-10-12T00:43:53.527Z,4.47
2018-10-12T00:46:25.904Z,4.40
2018-10-12T00:48:56.360Z,4.20
2018-10-12T00:51:25.558Z,4.47
2018-10-12T00:53:55.959Z,3.90
2018-10-12T00:56:26.164Z,3.70
2018-10-12T00:59:03.584Z,3.70
2018-10-12T01:01:33.965Z,3.80
2018-10-12T01:04:15.069Z,3.27
2018-10-12T01:06:54.384Z,3.63
2018-10-12T01:09:28.328Z,2.90
2018-10-12T01:12:41.981Z,3.33
2018-10-12T01:15:17.639Z,2.90
2018-10-12T01:17:48.557Z,2.80
2018-10-12T01:20:18.997Z,3.43
2018-10-12T01:22:48.200Z,3.27
2018-10-12T01:25:17.580Z,2.90
2018-10-12T01:27:47.281Z,3.23
2018-10-12T01:30:17.963Z,3.07
2018-10-12T01:32:55.211Z,2.67
2018-10-12T01:35:24.724Z,2.83
2018-10-12T01:37:54.354Z,3.20
2018-10-12T01:40:23.400Z,3.00
2018-10-12T01:45:30.493Z,2.90
2018-10-12T01:48:02.304Z,2.50
2018-10-12T01:50:32.224Z,3.00
2018-10-12T01:53:00.692Z,2.70
2018-10-12T01:55:31.128Z,2.90
2018-10-12T01:58:00.654Z,3.07
2018-10-12T02:00:33.224Z,3.50
2018-10-12T02:03:02.716Z,3.20
2018-10-12T02:05:33.879Z,2.90
2018-10-12T02:08:02.653Z,2.67
2018-10-12T02:10:32.808Z,3.07
2018-10-12T02:13:10.745Z,3.30
2018-10-12T02:15:44.140Z,2.83
2018-10-12T02:18:16.529Z,3.00
2018-10-12T02:20:54.498Z,2.60
2018-10-12T02:23:25.512Z,2.50
2018-10-12T02:25:55.296Z,2.73
2018-10-12T02:28:24.436Z,3.20
2018-10-12T02:30:53.918Z,2.20
2018-10-12T02:33:29.344Z,3.03
2018-10-12T02:38:38.936Z,2.80
2018-10-12T02:41:14.269Z,2.93
2018-10-12T02:43:46.128Z,2.87
2018-10-12T02:46:20.246Z,3.20
2018-10-12T02:48:49.228Z,2.70
2018-10-12T02:51:20.530Z,2.60
2018-10-12T02:53:50.390Z,2.97
2018-10-12T02:56:22.636Z,3.60
2018-10-12T02:58:53.344Z,2.63
2018-10-12T03:01:30.064Z,3.03
2018-10-12T03:04:00.256Z,3.70
2018-10-12T03:06:34.473Z,3.67
2018-10-12T03:09:03.661Z,3.23
2018-10-12T03:11:34.148Z,3.53
2018-10-12T03:14:09.189Z,3.70
2018-10-12T03:16:39.031Z,4.20
2018-10-12T03:19:11.217Z,3.20
2018-10-12T03:22:45.233Z,2.80
2018-10-12T03:25:15.885Z,3.53
2018-10-12T03:27:58.614Z,2.30
2018-10-12T03:30:29.593Z,3.20
2018-10-12T03:33:00.185Z,3.20
2018-10-12T03:35:30.303Z,2.70
2018-10-12T03:37:59.793Z,3.20
2018-10-12T03:40:28.860Z,3.23
2018-10-12T03:43:02.871Z,2.80
2018-10-12T03:45:34.424Z,3.23
2018-10-12T03:48:05.592Z,2.83
2018-10-12T03:50:37.360Z,2.93
2018-10-12T03:53:07.755Z,3.50
2018-10-12T03:55:42.376Z,3.13
2018-10-12T04:00:54.032Z,2.70
2018-10-12T04:03:29.241Z,3.40
2018-10-12T04:06:00.411Z,3.40
2018-10-12T04:08:33.478Z,3.03
2018-10-12T04:11:04.356Z,3.67
2018-10-12T04:13:43.340Z,2.80
2018-10-12T04:16:17.082Z,3.55
2018-10-12T04:19:37.412Z,3.35
2018-10-12T04:24:48.721Z,3.40
2018-10-12T04:27:21.021Z,3.30
2018-10-12T04:29:55.055Z,3.27
2018-10-12T04:32:38.378Z,3.13
2018-10-12T04:35:13.844Z,3.50
2018-10-12T04:37:45.589Z,3.17
2018-10-12T04:41:33.382Z,3.40
2018-10-12T04:44:10.104Z,3.33
2018-10-12T04:46:40.475Z,3.37
2018-10-12T04:49:15.780Z,3.70
2018-10-12T04:51:55.189Z,3.40
2018-10-12T04:54:29.807Z,3.57
2018-10-12T04:57:02.436Z,4.00
2018-10-12T04:59:34.788Z,3.53
2018-10-12T05:02:07.325Z,5.20
2018-10-12T05:04:39.140Z,4.17
2018-10-12T05:07:23.472Z,5.80
2018-10-12T05:09:54.619Z,5.23
2018-10-12T05:12:31.293Z,5.33
2018-10-12T05:15:00.836Z,5.07
2018-10-12T05:17:31.430Z,5.60
2018-10-12T05:20:22.708Z,5.60
2018-10-12T05:22:55.410Z,6.20
2018-10-12T05:25:27.066Z,5.80
2018-10-12T05:28:01.658Z,6.00
2018-10-12T05:30:39.718Z,5.03
2018-10-12T05:33:12.627Z,5.63
2018-10-12T05:35:44.878Z,5.83
2018-10-12T05:38:21.504Z,5.20
2018-10-12T05:40:53.352Z,5.10
2018-10-12T05:43:24.840Z,6.20
2018-10-12T05:46:02.409Z,6.70
2018-10-12T05:48:43.217Z,6.10
2018-10-12T05:51:15.412Z,6.93
2018-10-12T05:53:44.335Z,7.50
2018-10-12T05:56:14.980Z,6.70
2018-10-12T05:58:44.205Z,7.07
2018-10-12T06:01:12.687Z,7.77
2018-10-12T06:03:41.139Z,7.63
2018-10-12T06:06:09.972Z,7.27
2018-10-12T06:08:38.424Z,7.10
2018-10-12T06:11:07.167Z,7.30
2018-10-12T06:13:35.777Z,7.50
2018-10-12T06:16:04.293Z,8.57
2018-10-12T06:18:32.792Z,7.27
2018-10-12T06:21:01.266Z,8.20
2018-10-12T06:23:29.740Z,7.80
2018-10-12T06:25:58.203Z,7.93
2018-10-12T06:28:26.701Z,7.40
2018-10-12T06:30:55.137Z,7.63
2018-10-12T06:33:23.560Z,7.63
2018-10-12T06:35:52.020Z,7.10
2018-10-12T06:38:20.576Z,7.63
2018-10-12T06:40:49.176Z,7.77
2018-10-12T06:43:18.444Z,6.93
2018-10-12T06:45:47.319Z,7.53
2018-10-12T06:48:16.369Z,7.60
2018-10-12T06:50:45.052Z,6.97
2018-10-12T06:53:14.099Z,7.30
2018-10-12T06:55:42.567Z,6.50
2018-10-12T06:58:11.012Z,7.00
2018-10-12T07:00:39.575Z,6.23
2018-10-12T07:03:08.056Z,6.73
2018-10-12T07:05:36.525Z,5.80
2018-10-12T07:08:04.848Z,6.13
2018-10-12T07:10:33.212Z,6.27
2018-10-12T07:13:01.738Z,6.80
2018-10-12T07:15:30.203Z,4.77
2018-10-12T07:17:58.628Z,5.40
2018-10-12T07:20:26.993Z,5.43
2018-10-12T07:22:55.628Z,4.00
2018-10-12T07:25:26.004Z,5.00
2018-10-12T07:27:54.465Z,5.00
2018-10-12T07:30:22.965Z,4.83
2018-10-12T07:32:51.392Z,5.80
2018-10-12T07:35:19.896Z,5.57
2018-10-12T07:37:48.422Z,5.37
2018-10-12T07:40:16.710Z,5.20
2018-10-12T07:42:45.143Z,5.80
2018-10-12T07:45:14.604Z,5.70
2018-10-12T07:47:42.997Z,6.00
2018-10-12T07:50:11.477Z,6.80
2018-10-12T07:52:40.893Z,6.53
2018-10-12T07:55:09.348Z,7.93
2018-10-12T07:57:37.824Z,6.87
2018-10-12T08:07:13.158Z,6.70
2018-10-12T08:09:41.690Z,6.80
2018-10-12T08:12:10.091Z,5.53
2018-10-12T08:14:38.482Z,4.90
2018-10-12T08:17:07.297Z,4.73
2018-10-12T08:19:35.775Z,4.67
2018-10-12T08:22:04.276Z,4.50
2018-10-12T08:24:32.677Z,4.57
2018-10-12T08:27:01.101Z,5.27
2018-10-12T08:29:29.594Z,4.80
2018-10-12T08:31:58.097Z,4.13
2018-10-12T08:34:28.808Z,5.20
2018-10-12T08:36:57.281Z,4.50
2018-10-12T08:39:25.645Z,4.50
2018-10-12T08:41:54.147Z,3.70
2018-10-12T08:44:22.683Z,3.30
2018-10-12T08:46:51.432Z,4.87
2018-10-12T08:49:20.317Z,3.90
2018-10-12T08:51:48.836Z,3.40
2018-10-12T08:54:17.304Z,3.63
2018-10-12T08:56:47.495Z,3.43
2018-10-12T08:59:16.295Z,3.70
2018-10-12T09:01:44.821Z,3.77
2018-10-12T09:04:13.200Z,3.60
2018-10-12T09:06:41.597Z,3.70
2018-10-12T09:09:10.801Z,4.13
2018-10-12T09:11:39.948Z,4.30
2018-10-12T09:14:08.429Z,4.13
2018-10-12T09:16:36.833Z,3.50
2018-10-12T09:19:05.636Z,3.87
2018-10-12T09:21:34.089Z,3.60
2018-10-12T09:24:03.249Z,3.50
2018-10-12T09:26:31.852Z,4.17
2018-10-12T09:29:00.333Z,5.33
2018-10-12T09:31:28.879Z,4.87
2018-10-12T09:33:57.337Z,4.40
2018-10-12T09:36:25.772Z,4.70
2018-10-12T09:38:54.217Z,5.13
2018-10-12T09:41:22.701Z,5.23
2018-10-12T09:43:51.156Z,5.23
2018-10-12T09:46:19.512Z,5.77
2018-10-12T09:48:47.931Z,4.10
2018-10-12T09:51:16.316Z,4.67
2018-10-12T09:53:45.058Z,4.67
2018-10-12T09:56:13.432Z,4.80
2018-10-12T09:58:41.872Z,4.30
2018-10-12T10:01:15.679Z,4.93
2018-10-12T10:03:49.616Z,4.53
2018-10-12T10:06:17.996Z,4.33
2018-10-12T10:08:46.786Z,4.20
2018-10-12T10:11:15.147Z,4.80
2018-10-12T10:13:45.586Z,4.33
2018-10-12T10:16:14.023Z,3.73
2018-10-12T10:18:42.417Z,3.80
2018-10-12T10:21:10.833Z,3.90
2018-10-12T10:23:39.265Z,4.10
2018-10-12T10:26:07.786Z,3.90
2018-10-12T10:28:36.303Z,3.10
2018-10-12T10:31:04.724Z,4.03
2018-10-12T10:33:33.226Z,3.10
2018-10-12T10:36:02.670Z,3.80
2018-10-12T10:38:31.066Z,4.10
2018-10-12T10:41:00.326Z,3.07
2018-10-12T10:43:28.776Z,3.47
2018-10-12T10:45:57.228Z,3.17
2018-10-12T10:48:26.724Z,3.70
2018-10-12T10:50:56.741Z,3.27
2018-10-12T10:53:25.499Z,3.53
2018-10-12T10:55:53.914Z,3.50
2018-10-12T10:58:22.307Z,3.50
2018-10-12T11:00:50.845Z,3.60
2018-10-12T11:03:19.282Z,3.30
2018-10-12T11:05:47.638Z,3.10
2018-10-12T11:08:16.161Z,3.20
2018-10-12T11:10:44.638Z,3.87
2018-10-12T11:13:13.132Z,3.30
2018-10-12T11:15:42.618Z,3.50
2018-10-12T11:18:11.089Z,3.07
2018-10-12T11:20:39.600Z,3.30
2018-10-12T11:23:09.049Z,2.90
2018-10-12T11:25:37.581Z,3.30
2018-10-12T11:28:08.077Z,2.83
2018-10-12T11:30:37.782Z,3.07
2018-10-12T11:33:07.840Z,2.87
2018-10-12T11:35:36.295Z,2.80
2018-10-12T11:38:04.750Z,3.27
2018-10-12T11:40:33.217Z,3.00
2018-10-12T11:43:12.755Z,3.00
2018-10-12T11:45:44.764Z,2.53
2018-10-12T11:48:13.266Z,2.33
2018-10-12T11:50:41.728Z,2.67
2018-10-12T11:53:10.240Z,2.63
2018-10-12T11:55:42.153Z,2.00
2018-10-12T11:58:12.070Z,2.00
2018-10-12T12:00:41.922Z,2.20
2018-10-12T12:03:10.420Z,2.10
2018-10-12T12:05:39.276Z,2.73
2018-10-12T12:08:09.761Z,2.43
2018-10-12T12:10:44.447Z,2.03
2018-10-12T12:13:14.546Z,2.37
2018-10-12T12:15:45.593Z,2.27
2018-10-12T12:18:14.089Z,2.57
2018-10-12T12:20:44.021Z,2.07
2018-10-12T12:23:12.461Z,2.40
2018-10-12T12:25:41.536Z,2.50
2018-10-12T12:28:10.206Z,2.63
2018-10-12T12:30:38.950Z,2.70
2018-10-12T12:33:08.628Z,2.63
2018-10-12T12:35:37.635Z,2.90
2018-10-12T12:38:05.779Z,3.17
2018-10-12T12:40:34.527Z,3.40
2018-10-12T12:43:02.937Z,3.50
2018-10-12T12:45:33.625Z,2.97
2018-10-12T12:48:02.303Z,3.10
2018-10-12T12:50:30.904Z,3.03
2018-10-12T12:52:59.463Z,2.53
2018-10-12T12:55:28.240Z,2.93
2018-10-12T12:57:56.631Z,2.90
2018-10-12T13:00:25.233Z,2.43
2018-10-12T13:02:54.755Z,2.80
2018-10-12T13:05:24.256Z,2.70
2018-10-12T13:07:55.131Z,3.03
2018-10-12T13:10:29.505Z,2.37
2018-10-12T13:12:58.436Z,2.93
2018-10-12T13:15:29.569Z,2.57
2018-10-12T13:17:59.065Z,2.93
2018-10-12T13:20:28.493Z,2.97
2018-10-12T13:23:01.761Z,2.90
2018-10-12T13:25:30.189Z,2.80
2018-10-12T13:27:59.783Z,3.07
2018-10-12T13:30:30.305Z,3.70
2018-10-12T13:33:00.137Z,3.37
2018-10-12T13:35:30.192Z,3.70
2018-10-12T13:38:00.336Z,3.07
2018-10-12T13:40:30.600Z,2.93
2018-10-12T13:43:01.020Z,3.50
2018-10-12T13:45:31.299Z,3.73
2018-10-12T13:48:03.360Z,4.23
2018-10-12T13:50:32.303Z,3.20
2018-10-12T13:53:00.687Z,4.20
2018-10-12T13:55:30.080Z,3.50
2018-10-12T13:58:03.939Z,3.53
2018-10-12T14:00:34.278Z,3.60
2018-10-12T14:03:03.761Z,3.03
2018-10-12T14:05:32.348Z,3.13
2018-10-12T14:08:00.933Z,3.37
2018-10-12T14:10:30.165Z,4.50
2018-10-12T14:12:59.640Z,3.63
2018-10-12T14:15:30.180Z,3.77
2018-10-12T14:17:59.113Z,3.70
2018-10-12T14:20:27.943Z,3.90
2018-10-12T14:22:56.425Z,4.20
2018-10-12T14:25:26.118Z,3.60
2018-10-12T14:27:54.557Z,3.93
2018-10-12T14:30:24.344Z,3.70
2018-10-12T14:32:52.881Z,4.20
2018-10-12T14:35:23.252Z,3.87
2018-10-12T14:37:53.292Z,4.10
2018-10-12T14:40:21.721Z,4.27
2018-10-12T14:42:51.248Z,3.97
2018-10-12T14:45:19.684Z,4.77
2018-10-12T14:47:49.089Z,3.73
2018-10-12T14:50:17.614Z,4.17
2018-10-12T14:52:46.085Z,3.60
2018-10-12T14:55:15.589Z,4.30
2018-10-12T14:57:45.481Z,4.03
2018-10-12T15:00:14.901Z,4.50
2018-10-12T15:02:44.316Z,3.67
2018-10-12T15:05:13.667Z,3.97
2018-10-12T15:07:42.051Z,4.23
2018-10-12T15:10:11.095Z,5.33
2018-10-12T15:12:39.785Z,4.60
2018-10-12T15:15:25.789Z,4.40
2018-10-12T15:17:55.227Z,4.27
2018-10-12T15:20:24.043Z,4.00
2018-10-12T15:22:52.431Z,4.07
2018-10-12T15:25:21.014Z,4.90
2018-10-12T15:27:49.436Z,4.10
2018-10-12T15:30:18.301Z,4.20
2018-10-12T15:32:47.416Z,4.60
2018-10-12T15:35:16.848Z,3.90
2018-10-12T15:37:46.092Z,4.30
2018-10-12T15:40:14.756Z,4.13
2018-10-12T15:42:44.288Z,4.03
2018-10-12T15:45:12.766Z,5.10
2018-10-12T15:47:42.064Z,4.60
2018-10-12T15:50:10.496Z,4.57
2018-10-12T15:52:40.262Z,4.27
2018-10-12T15:55:09.728Z,3.93
2018-10-12T15:57:38.520Z,3.87
2018-10-12T16:00:07.968Z,5.00
2018-10-12T16:02:36.588Z,3.83
2018-10-12T16:05:04.984Z,4.40
2018-10-12T16:07:33.793Z,5.03
2018-10-12T16:10:02.288Z,4.20
2018-10-12T16:12:30.828Z,5.13
2018-10-12T16:14:59.230Z,4.40
2018-10-12T16:17:27.905Z,4.10
2018-10-12T16:19:56.269Z,4.80
2018-10-12T16:22:24.735Z,4.47
2018-10-12T16:25:06.920Z,4.83
2018-10-12T16:27:35.329Z,4.40
2018-10-12T16:30:04.196Z,3.73
2018-10-12T16:32:34.138Z,4.53
2018-10-12T16:35:09.134Z,4.47
2018-10-12T16:37:38.663Z,5.23
2018-10-12T16:40:08.156Z,4.00
2018-10-12T16:42:37.272Z,4.47
2018-10-12T16:45:06.740Z,4.30
2018-10-12T16:47:35.204Z,4.97
2018-10-12T16:50:03.663Z,4.53
2018-10-12T16:52:32.051Z,4.00
2018-10-12T16:55:00.512Z,4.10
2018-10-12T16:57:35.107Z,4.00
2018-10-12T17:00:04.079Z,4.83
2018-10-12T17:02:33.527Z,4.63
2018-10-12T17:05:01.985Z,4.00
2018-10-12T17:07:30.321Z,3.70
2018-10-12T17:09:58.817Z,4.30
2018-10-12T17:12:28.192Z,5.63
2018-10-12T17:14:56.572Z,5.00
2018-10-12T17:17:25.031Z,5.50
2018-10-12T17:19:54.468Z,4.53
2018-10-12T17:22:23.276Z,4.53
2018-10-12T17:24:51.825Z,3.73
2018-10-12T17:27:20.237Z,5.30
2018-10-12T17:29:48.696Z,4.53
2018-10-12T17:32:17.159Z,5.23
2018-10-12T17:34:45.783Z,5.53
2018-10-12T17:37:14.197Z,4.77
2018-10-12T17:39:42.621Z,5.30
2018-10-12T17:42:15.715Z,4.77
2018-10-12T17:44:44.400Z,4.90
2018-10-12T17:47:13.377Z,4.93
2018-10-12T17:49:41.778Z,4.93
2018-10-12T17:52:11.209Z,4.33
2018-10-12T17:54:39.627Z,4.33
2018-10-12T17:57:08.029Z,4.53
2018-10-12T17:59:36.396Z,5.13
2018-10-12T18:02:04.800Z,4.53
2018-10-12T18:04:33.782Z,4.83
2018-10-12T18:07:02.648Z,5.37
2018-10-12T18:09:31.128Z,4.77
2018-10-12T18:12:00.105Z,4.30
2018-10-12T18:14:28.560Z,4.80
2018-10-12T18:16:57.093Z,4.23
2018-10-12T18:19:25.544Z,4.90
2018-10-12T18:21:53.995Z,5.10
2018-10-12T18:24:22.460Z,5.50
2018-10-12T18:26:50.924Z,4.77
2018-10-12T18:29:19.422Z,4.80
2018-10-12T18:31:47.921Z,4.60
2018-10-12T18:34:16.375Z,5.30
2018-10-12T18:36:45.494Z,5.60
2018-10-12T18:39:14.092Z,5.70
2018-10-12T18:41:42.612Z,4.53
2018-10-12T18:44:11.049Z,5.40
2018-10-12T18:46:39.592Z,5.87
2018-10-12T18:49:08.048Z,4.93
2018-10-12T18:51:36.488Z,5.70
2018-10-12T18:54:04.984Z,4.73
2018-10-12T18:56:33.433Z,4.70
2018-10-12T18:59:01.992Z,4.97
2018-10-12T19:01:30.368Z,5.23
2018-10-12T19:03:58.776Z,4.50
2018-10-12T19:06:27.280Z,4.50
2018-10-12T19:08:55.746Z,4.37
2018-10-12T19:11:24.374Z,5.33
2018-10-12T19:13:52.823Z,5.03
2018-10-12T19:16:21.382Z,4.00
2018-10-12T19:18:49.920Z,5.43
2018-10-12T19:21:18.488Z,4.60
2018-10-12T19:23:47.006Z,4.47
2018-10-12T19:26:15.410Z,4.57
2018-10-12T19:28:43.919Z,5.27
2018-10-12T19:31:12.342Z,5.30
2018-10-12T19:33:40.794Z,4.40
2018-10-12T19:36:09.320Z,4.07
2018-10-12T19:38:37.655Z,4.00
2018-10-12T19:41:06.405Z,4.20
2018-10-12T19:43:34.856Z,4.20
2018-10-12T19:46:03.232Z,4.00
2018-10-12T19:48:31.619Z,4.40
2018-10-12T19:51:00.133Z,4.10
2018-10-12T19:53:28.604Z,4.00
2018-10-12T19:55:57.057Z,4.60
2018-10-12T19:58:25.457Z,4.67
2018-10-12T20:00:53.924Z,3.97
2018-10-12T20:03:22.334Z,4.37
2018-10-12T20:05:50.821Z,4.43
2018-10-12T20:08:19.184Z,4.13
2018-10-12T20:10:47.640Z,4.17
2018-10-12T20:13:16.029Z,4.00
2018-10-12T20:15:44.545Z,3.90
2018-10-12T20:18:13.056Z,5.20
2018-10-12T20:20:41.509Z,4.80
2018-10-12T20:23:09.954Z,4.30
2018-10-12T20:25:46.053Z,3.90
2018-10-12T20:28:14.473Z,4.40
2018-10-12T20:30:42.981Z,4.57
2018-10-12T20:33:11.356Z,4.23
2018-10-12T20:35:39.752Z,4.50
2018-10-12T20:38:08.256Z,5.00
2018-10-12T20:40:36.704Z,4.40
2018-10-12T20:43:05.137Z,4.00
2018-10-12T20:45:33.544Z,4.00
2018-10-12T20:48:01.941Z,4.47
2018-10-12T20:50:30.344Z,4.40
2018-10-12T20:52:59.039Z,4.27
2018-10-12T20:55:27.500Z,4.17
2018-10-12T20:57:55.968Z,5.57
2018-10-12T21:00:24.681Z,4.10
2018-10-12T21:02:53.160Z,4.27
2018-10-12T21:05:21.657Z,3.80
2018-10-12T21:07:50.116Z,3.50
2018-10-12T21:10:18.885Z,4.63
2018-10-12T21:12:47.256Z,4.53
2018-10-12T21:15:15.661Z,4.60
2018-10-12T21:17:44.145Z,4.80
2018-10-12T21:20:12.585Z,3.80
2018-10-12T21:22:41.080Z,3.77
2018-10-12T21:25:09.470Z,3.83
2018-10-12T21:27:37.808Z,3.60
2018-10-12T21:30:06.336Z,4.30
2018-10-12T21:32:34.716Z,5.23
2018-10-12T21:35:03.397Z,4.10
2018-10-12T21:37:31.964Z,4.57
2018-10-12T21:40:00.318Z,4.30
2018-10-12T21:42:28.712Z,4.27
2018-10-12T21:44:57.105Z,4.83
2018-10-12T21:47:25.490Z,4.97
2018-10-12T21:49:53.960Z,4.13
2018-10-12T21:52:22.785Z,4.23
2018-10-12T21:54:52.388Z,4.20
2018-10-12T21:57:20.949Z,4.30
2018-10-12T21:59:49.391Z,4.43
2018-10-12T22:02:17.800Z,5.00
2018-10-12T22:04:46.196Z,4.80
2018-10-12T22:07:14.635Z,4.40
2018-10-12T22:09:42.989Z,4.57
2018-10-12T22:12:11.484Z,5.23
2018-10-12T22:14:39.905Z,5.63
2018-10-12T22:17:08.269Z,5.50
2018-10-12T22:19:36.673Z,5.00
2018-10-12T22:22:05.089Z,5.50
2018-10-12T22:24:33.509Z,5.63
2018-10-12T22:27:01.913Z,5.77
2018-10-12T22:29:30.263Z,5.40
2018-10-12T22:31:58.792Z,4.47
2018-10-12T22:34:27.240Z,6.30
2018-10-12T22:36:55.671Z,5.93
2018-10-12T22:39:23.996Z,5.87
2018-10-12T22:41:52.426Z,5.20
2018-10-12T22:44:21.900Z,5.13
2018-10-12T22:46:50.372Z,5.37
2018-10-12T22:49:18.756Z,5.63
2018-10-12T22:51:47.148Z,5.37
2018-10-12T22:54:15.641Z,4.80
2018-10-12T22:56:44.342Z,4.60
2018-10-12T22:59:12.767Z,5.80
2018-10-12T23:01:41.148Z,4.80
2018-10-12T23:04:09.522Z,5.40
2018-10-12T23:06:37.959Z,4.63
2018-10-12T23:09:08.916Z,4.87
2018-10-12T23:11:37.340Z,4.60
2018-10-12T23:14:06.560Z,4.90
2018-10-12T23:16:35.146Z,5.10
2018-10-12T23:19:03.848Z,4.90
2018-10-12T23:21:32.272Z,4.40
2018-10-12T23:24:01.612Z,5.60
2018-10-12T23:26:30.221Z,4.90
2018-10-12T23:28:59.272Z,4.43
2018-10-12T23:31:27.686Z,4.90
2018-10-12T23:34:04.953Z,4.30
2018-10-12T23:36:33.508Z,4.90
2018-10-12T23:39:02.093Z,5.80
2018-10-12T23:41:30.472Z,4.50
2018-10-12T23:43:58.984Z,4.33
2018-10-12T23:46:27.704Z,4.77
2018-10-12T23:48:56.356Z,4.07
2018-10-12T23:51:24.780Z,4.77
2018-10-12T23:53:53.159Z,4.50
2018-10-12T23:56:21.583Z,4.47
2018-10-12T23:58:49.934Z,4.83
